Terminal Aerodrome Forecast
Issued by NWS

Home | Current Version | Previous Version | Text Only | Print | Product List | Glossary On
Versions: 1 2 3 4 5 6 7 8 9 10 11 12 13 14 15 16 17 18 19 20 21 22 23 24
000
FTUS42 KFFC 192328
TAFRYY
TAF
KRYY 192328Z 2000/2024 10008KT 3SM BR OVC005
     FM200500 14005KT 3SM BR OVC004
     FM201000 14006KT 1SM BR OVC003
     FM201600 15007KT P6SM BKN010
     FM202000 14007KT P6SM BKN020=

USA.gov is the U.S. government's official web portal to all federal, state and local government web resources and services.